Willis Wharf, Virginia
Current Conditions -  °F | °C
As of 7:15 PM on Friday 21 Nov 2014 (Local Time) from KMFV Reporting Station
Clear Clear  
Wind Chill: 28°   Ceiling: Unl
Heat Index: 28°   Visibility: 10mi
Dew Point: 14°   Wind: 3mph
Humidity: 55%   Direction: 320°NW
Pressure: 30.55"   Gusts: NA
Location:  37.52°N, 75.81°W
Report Text: KMFV 220015Z AUTO 32003KT 10SM CLR M02/M10 A3055 RMK AO2
Loading
Personal Weather Stations






























Interactive Weather Map New forecast layout! Learn more

10-Day Weather Forecast

Advertisements
Track Severe Weather on mobile